Time;durP1;ratioP1;P1;durP2;ratioP2;P2;SDS_P1;SDS_P2;PMS_P1;PMS_P2;Temp;Humidity;BMP_temperature;BMP_pressure;BME280_temperature;BME280_humidity;BME280_pressure;Samples;Min_cycle;Max_cycle;Signal;HPM_P1;HPM_P2
2023/02/23 00:02:00;;;;;;;28.92;16.23;;;;;;;6.15;100.00;96918.03;5062632;28;20069;-61
2023/02/23 00:04:26;;;;;;;28.20;17.17;;;;;;;6.03;100.00;96913.47;5058763;28;20106;-61
2023/02/23 00:06:53;;;;;;;25.58;16.08;;;;;;;5.97;100.00;96914.41;5060314;28;20036;-60
2023/02/23 00:09:26;;;;;;;28.08;16.30;;;;;;;5.98;100.00;96914.13;5062022;28;20048;-60
2023/02/23 00:11:56;;;;;;;28.50;17.10;;;;;;;6.15;100.00;96907.28;5063800;28;20059;-60
2023/02/23 00:14:27;;;;;;;29.20;17.48;;;;;;;6.11;100.00;96914.97;5063100;28;20073;-60
2023/02/23 00:16:54;;;;;;;28.88;17.38;;;;;;;6.02;100.00;96906.44;5060588;28;20275;-60
2023/02/23 00:19:23;;;;;;;24.80;15.90;;;;;;;5.93;100.00;96907.84;5062164;28;20040;-60
2023/02/23 00:21:50;;;;;;;28.85;16.88;;;;;;;5.94;100.00;96904.09;5056168;28;20412;-60
2023/02/23 00:24:21;;;;;;;29.67;16.73;;;;;;;5.94;100.00;96904.91;5061689;28;20076;-60
2023/02/23 00:26:50;;;;;;;29.92;17.45;;;;;;;5.89;100.00;96907.47;5057002;28;20105;-60
2023/02/23 00:29:19;;;;;;;30.38;18.35;;;;;;;5.85;100.00;96915.19;5060213;28;20119;-61
2023/02/23 00:31:47;;;;;;;34.72;17.63;;;;;;;5.80;100.00;96906.19;5060161;28;20041;-61
2023/02/23 00:34:19;;;;;;;30.77;18.30;;;;;;;5.82;100.00;96909.47;5061939;28;20037;-62
2023/02/23 00:36:53;;;;;;;29.95;17.35;;;;;;;5.83;100.00;96903.84;5055057;28;20047;-62
2023/02/23 00:39:25;;;;;;;31.20;17.80;;;;;;;5.80;100.00;96903.50;5057362;28;20056;-61
2023/02/23 00:41:55;;;;;;;32.85;18.40;;;;;;;5.81;100.00;96903.28;5059393;28;20455;-62
2023/02/23 00:44:22;;;;;;;31.55;18.15;;;;;;;5.84;100.00;96907.38;5056837;28;20041;-60
2023/02/23 00:46:50;;;;;;;29.83;17.95;;;;;;;5.76;100.00;96908.53;5057887;28;20033;-61
2023/02/23 00:49:18;;;;;;;32.53;18.92;;;;;;;5.88;100.00;96908.53;5057305;28;20032;-61
2023/02/23 00:51:45;;;;;;;32.13;19.48;;;;;;;5.81;100.00;96911.34;5060162;28;20450;-61
2023/02/23 00:54:14;;;;;;;30.05;18.98;;;;;;;5.81;100.00;96910.50;5056492;28;20427;-62
2023/02/23 00:56:40;;;;;;;30.95;18.85;;;;;;;5.81;100.00;96905.97;5058434;28;20048;-62
2023/02/23 00:59:07;;;;;;;30.17;18.67;;;;;;;5.82;100.00;96909.47;5055697;28;20056;-61
2023/02/23 01:01:33;;;;;;;26.58;17.95;;;;;;;5.72;100.00;96900.09;5050361;28;20072;-61
2023/02/23 01:04:00;;;;;;;28.02;17.73;;;;;;;5.75;100.00;96906.88;5050337;28;20056;-61
2023/02/23 01:06:29;;;;;;;27.75;17.67;;;;;;;5.69;100.00;96905.97;5057827;28;20032;-61
2023/02/23 01:08:56;;;;;;;34.67;19.75;;;;;;;5.71;100.00;96911.91;5051515;28;20507;-61
2023/02/23 01:11:29;;;;;;;32.03;19.38;;;;;;;5.71;100.00;96908.38;5056556;28;20048;-61
2023/02/23 01:13:58;;;;;;;29.70;18.13;;;;;;;5.75;100.00;96909.56;5059327;28;20044;-61
2023/02/23 01:16:30;;;;;;;34.88;18.40;;;;;;;5.71;100.00;96909.22;5057310;28;20070;-61
2023/02/23 01:18:59;;;;;;;34.25;18.40;;;;;;;5.75;100.00;96912.25;5057259;28;20093;-61
2023/02/23 01:21:29;;;;;;;31.33;19.40;;;;;;;5.87;100.00;96914.97;5056970;28;20056;-61
2023/02/23 01:23:57;;;;;;;33.88;18.88;;;;;;;5.87;100.00;96909.59;5056053;28;20251;-61
2023/02/23 01:26:33;;;;;;;34.80;20.05;;;;;;;5.84;100.00;96910.06;5058051;28;20063;-61
2023/02/23 01:29:10;;;;;;;30.75;17.02;;;;;;;5.79;100.00;96908.06;5052524;28;20595;-61
2023/02/23 01:31:39;;;;;;;30.40;18.85;;;;;;;5.67;100.00;96907.22;5055931;28;20040;-60
2023/02/23 01:34:07;;;;;;;29.27;17.77;;;;;;;5.69;100.00;96905.97;5056835;28;20041;-61
2023/02/23 01:36:36;;;;;;;32.70;18.73;;;;;;;5.68;100.00;96907.00;5050581;28;20098;-61
2023/02/23 01:39:07;;;;;;;37.17;19.13;;;;;;;5.72;100.00;96905.47;5054351;28;20044;-60
2023/02/23 01:41:35;;;;;;;30.70;19.92;;;;;;;5.72;100.00;96902.78;5056872;28;20033;-60
2023/02/23 01:44:05;;;;;;;35.95;20.25;;;;;;;5.78;100.00;96900.25;5055191;28;20048;-60
2023/02/23 01:46:38;;;;;;;33.70;18.65;;;;;;;5.90;100.00;96913.69;5060045;28;20428;-60
2023/02/23 01:49:09;;;;;;;33.20;18.60;;;;;;;5.91;100.00;96899.19;5048858;28;20136;-61
2023/02/23 01:51:39;;;;;;;;;;;;;;;5.89;100.00;96894.03;5060287;28;20047;-60
2023/02/23 01:54:13;;;;;;;34.35;18.92;;;;;;;5.85;100.00;96896.38;5058405;28;19920;-61
2023/02/23 01:56:44;;;;;;;33.17;19.48;;;;;;;5.78;100.00;96889.50;5053522;28;20539;-61
2023/02/23 01:59:14;;;;;;;34.97;18.98;;;;;;;5.70;100.00;96890.66;5047281;28;20065;-61
2023/02/23 02:01:41;;;;;;;32.58;19.38;;;;;;;5.75;100.00;96889.97;5054075;28;20041;-61
2023/02/23 02:04:15;;;;;;;35.50;21.00;;;;;;;5.69;100.00;96889.84;5052377;28;20040;-61
2023/02/23 02:06:45;;;;;;;35.15;19.75;;;;;;;5.64;100.00;96897.75;5058485;28;20056;-61
2023/02/23 02:09:16;;;;;;;36.22;20.00;;;;;;;5.64;100.00;96900.44;5049339;28;20037;-61
2023/02/23 02:11:45;;;;;;;35.97;21.85;;;;;;;5.72;100.00;96900.09;5056917;28;20413;-62
2023/02/23 02:14:17;;;;;;;38.58;21.42;;;;;;;5.72;100.00;96904.69;5054850;28;20045;-61
2023/02/23 02:17:08;;;;;;;41.95;21.50;;;;;;;5.76;100.00;96895.09;5054113;28;20116;-60
2023/02/23 02:19:56;;;;;;;36.80;20.33;;;;;;;5.88;100.00;96896.97;5054870;28;20040;-60
2023/02/23 02:23:01;;;;;;;36.53;20.80;;;;;;;5.92;100.00;96898.13;5059358;28;20563;-61
2023/02/23 02:25:59;;;;;;;33.28;19.88;;;;;;;5.91;100.00;96885.75;5068542;28;20040;-61
2023/02/23 02:28:53;;;;;;;35.65;19.38;;;;;;;5.93;100.00;96878.28;5055838;28;20565;-61
2023/02/23 02:31:35;;;;;;;30.05;17.80;;;;;;;5.97;100.00;96890.22;5064498;28;20063;-60
2023/02/23 02:34:32;;;;;;;38.92;20.20;;;;;;;5.93;100.00;96881.78;5056229;28;20036;-61
2023/02/23 02:37:16;;;;;;;37.78;19.75;;;;;;;5.97;100.00;96882.16;5063294;28;20228;-61
2023/02/23 02:40:15;;;;;;;29.33;18.90;;;;;;;5.96;100.00;96878.63;5057902;28;20040;-61
2023/02/23 02:43:37;;;;;;;31.98;18.30;;;;;;;5.99;100.00;96874.66;5061483;28;20115;-61
2023/02/23 02:46:18;;;;;;;37.00;20.00;;;;;;;5.90;100.00;96868.00;4982306;28;20057;-61
2023/02/23 02:49:07;;;;;;;31.47;18.83;;;;;;;5.91;100.00;96869.63;5049964;28;20045;-60
2023/02/23 02:51:59;;;;;;;30.67;18.15;;;;;;;5.90;100.00;96876.88;5052706;28;20041;-60
2023/02/23 02:54:38;;;;;;;31.23;17.98;;;;;;;5.93;100.00;96872.91;5059596;28;20238;-61
2023/02/23 02:57:07;;;;;;;33.13;18.92;;;;;;;5.92;100.00;96868.56;5061277;28;20532;-60
2023/02/23 04:19:13;;;;;;;30.77;17.95;;;;;;;5.96;100.00;96891.25;5060721;28;20036;-61
2023/02/23 04:21:40;;;;;;;28.88;17.23;;;;;;;5.99;100.00;96888.91;5061061;28;20495;-60
2023/02/23 04:24:08;;;;;;;29.15;17.52;;;;;;;6.04;100.00;96888.22;5060639;28;20115;-60
2023/02/23 04:26:35;;;;;;;27.88;16.17;;;;;;;6.03;100.00;96889.28;5064558;28;20916;-62
2023/02/23 04:29:02;;;;;;;28.98;16.00;;;;;;;5.95;100.00;96868.94;5063732;28;20458;-61
2023/02/23 04:31:28;;;;;;;25.65;15.90;;;;;;;5.95;100.00;96878.84;5063772;28;20389;-60
2023/02/23 04:33:55;;;;;;;27.77;16.58;;;;;;;5.85;100.00;96880.28;5063218;28;20472;-62
2023/02/23 04:36:23;;;;;;;24.83;15.30;;;;;;;5.81;100.00;96873.72;5059335;28;20048;-61
2023/02/23 04:38:49;;;;;;;27.55;16.73;;;;;;;5.81;100.00;96884.47;5060895;28;20454;-61
2023/02/23 04:41:16;;;;;;;25.38;14.95;;;;;;;5.82;100.00;96883.41;5058839;28;20068;-61
2023/02/23 04:43:43;;;;;;;28.10;16.42;;;;;;;5.76;100.00;96889.72;5058072;28;20470;-62
2023/02/23 04:46:10;;;;;;;30.10;17.13;;;;;;;5.72;100.00;96891.25;5059342;28;20040;-62
2023/02/23 04:48:36;;;;;;;31.77;17.02;;;;;;;5.68;100.00;96898.13;5057702;28;20519;-61
2023/02/23 04:51:03;;;;;;;30.95;18.10;;;;;;;5.70;100.00;96899.53;5058101;28;20045;-62
2023/02/23 04:53:29;;;;;;;33.60;16.83;;;;;;;5.73;100.00;96895.56;5060009;28;20127;-62
2023/02/23 04:55:56;;;;;;;30.70;18.10;;;;;;;5.77;100.00;96899.41;5061910;28;20566;-61
2023/02/23 04:58:22;;;;;;;36.00;18.23;;;;;;;5.79;100.00;96901.88;5059244;28;20123;-61
2023/02/23 05:00:49;;;;;;;26.33;16.67;;;;;;;5.79;100.00;96900.00;5062245;28;20063;-62
2023/02/23 05:03:16;;;;;;;31.13;16.58;;;;;;;5.85;100.00;96898.25;5063230;28;20055;-61
2023/02/23 05:05:43;;;;;;;32.90;17.67;;;;;;;5.91;100.00;96894.66;5060974;28;20048;-63
2023/02/23 05:08:10;;;;;;;27.17;16.65;;;;;;;5.96;100.00;96896.63;5058466;28;20036;-62
2023/02/23 05:10:36;;;;;;;25.85;15.65;;;;;;;5.93;100.00;96895.22;5060899;28;20047;-62
2023/02/23 05:13:05;;;;;;;25.70;15.27;;;;;;;5.83;100.00;96887.72;5055403;28;20389;-62
2023/02/23 05:15:32;;;;;;;23.80;15.13;;;;;;;5.76;100.00;96881.66;5056939;28;20463;-62
2023/02/23 05:17:58;;;;;;;27.15;16.70;;;;;;;5.72;100.00;96888.56;5058892;28;20032;-61
2023/02/23 05:20:25;;;;;;;25.00;14.88;;;;;;;5.72;100.00;96889.34;5059594;28;20060;-62
2023/02/23 05:22:52;;;;;;;29.40;16.08;;;;;;;5.85;100.00;96898.25;5053764;28;20041;-60
2023/02/23 05:25:18;;;;;;;28.15;16.35;;;;;;;5.72;100.00;96899.31;5055599;28;20068;-61
2023/02/23 05:27:45;;;;;;;33.88;18.00;;;;;;;5.69;100.00;96897.06;5063873;28;20499;-60
2023/02/23 05:30:12;;;;;;;29.30;17.08;;;;;;;5.71;100.00;96895.78;5057795;28;20079;-61
2023/02/23 05:32:38;;;;;;;27.50;15.38;;;;;;;5.79;100.00;96897.31;5056377;28;20122;-60
2023/02/23 05:35:05;;;;;;;30.23;16.33;;;;;;;5.84;100.00;96900.13;5057367;28;20032;-61
2023/02/23 05:37:32;;;;;;;28.10;17.20;;;;;;;5.95;100.00;96908.41;5054210;28;20716;-61
2023/02/23 05:39:59;;;;;;;26.88;16.42;;;;;;;5.95;100.00;96909.25;5053115;28;20072;-61
2023/02/23 05:42:25;;;;;;;32.05;16.00;;;;;;;5.92;100.00;96901.66;5054533;28;20040;-61
2023/02/23 05:44:52;;;;;;;26.98;16.00;;;;;;;5.93;100.00;96897.09;5057215;28;20037;-61
2023/02/23 05:47:18;;;;;;;24.67;15.45;;;;;;;5.87;100.00;96904.22;5057371;28;20041;-61
2023/02/23 05:49:45;;;;;;;29.00;15.90;;;;;;;5.80;100.00;96901.66;5051581;28;20522;-60
2023/02/23 05:52:12;;;;;;;30.98;15.50;;;;;;;5.85;100.00;96904.44;5055600;28;20037;-61
2023/02/23 05:54:38;;;;;;;29.90;17.17;;;;;;;5.98;100.00;96911.44;5053428;28;20524;-61
2023/02/23 05:57:04;;;;;;;27.35;15.95;;;;;;;5.95;100.00;96903.03;5054241;28;20154;-62
2023/02/23 05:59:31;;;;;;;27.95;16.58;;;;;;;5.90;100.00;96908.31;5058072;28;20040;-62
2023/02/23 06:01:57;;;;;;;25.48;15.55;;;;;;;5.83;100.00;96901.16;5055104;28;22362;-62
2023/02/23 06:04:24;;;;;;;30.75;16.00;;;;;;;5.92;100.00;96907.03;5060852;28;20497;-62
2023/02/23 06:06:51;;;;;;;32.17;16.77;;;;;;;5.93;100.00;96902.47;5062893;28;20033;-62
2023/02/23 06:09:17;;;;;;;24.90;15.60;;;;;;;5.96;100.00;96899.28;5062894;28;20430;-62
2023/02/23 06:11:44;;;;;;;31.27;16.40;;;;;;;5.91;100.00;96897.34;5062789;28;20595;-62
2023/02/23 06:14:10;;;;;;;31.08;17.20;;;;;;;5.90;100.00;96902.94;5060089;28;20114;-61
2023/02/23 06:16:38;;;;;;;31.70;16.35;;;;;;;5.92;100.00;96898.13;5064853;28;20082;-58
2023/02/23 06:19:04;;;;;;;28.48;15.85;;;;;;;5.96;100.00;96907.34;5062390;28;20044;-60
2023/02/23 06:21:31;;;;;;;28.45;15.57;;;;;;;5.98;100.00;96907.97;5060747;28;20097;-60
2023/02/23 06:23:59;;;;;;;33.47;16.25;;;;;;;6.00;100.00;96913.91;5061431;28;20036;-60
2023/02/23 06:26:26;;;;;;;30.30;15.40;;;;;;;6.04;100.00;96911.63;5057910;28;20500;-60
2023/02/23 06:28:54;;;;;;;27.92;15.07;;;;;;;6.00;100.00;96908.53;5058905;28;20048;-60
2023/02/23 06:31:21;;;;;;;22.13;13.88;;;;;;;5.95;100.00;96909.25;5056598;28;20056;-60
2023/02/23 06:33:48;;;;;;;25.70;14.82;;;;;;;5.85;100.00;96909.00;5056862;28;20052;-61
2023/02/23 06:36:14;;;;;;;25.52;14.18;;;;;;;5.86;100.00;96914.13;5056426;28;20037;-61
2023/02/23 06:38:40;;;;;;;27.85;15.32;;;;;;;5.88;100.00;96919.28;5057039;28;20068;-60
2023/02/23 06:41:08;;;;;;;29.08;15.05;;;;;;;5.82;100.00;96926.41;5058407;28;20099;-60
2023/02/23 06:43:35;;;;;;;22.95;14.57;;;;;;;5.92;100.00;96928.53;5056794;28;20055;-60
2023/02/23 06:46:02;;;;;;;25.00;14.40;;;;;;;5.95;100.00;96935.28;5056202;28;20032;-60
2023/02/23 06:48:29;;;;;;;28.17;13.95;;;;;;;5.96;100.00;96935.06;5056274;28;20059;-60
2023/02/23 06:50:58;;;;;;;24.77;13.82;;;;;;;5.94;100.00;96930.97;5055451;28;20040;-59
2023/02/23 06:53:24;;;;;;;22.65;12.60;;;;;;;5.92;100.00;96927.69;5056861;28;20475;-60
2023/02/23 06:55:50;;;;;;;25.15;14.77;;;;;;;5.86;100.00;96926.75;5058397;28;20133;-60
2023/02/23 06:58:17;;;;;;;21.35;13.73;;;;;;;5.75;100.00;96933.75;5053055;28;20065;-60
2023/02/23 07:00:43;;;;;;;19.35;12.52;;;;;;;5.76;100.00;96932.72;5062472;28;20131;-60
2023/02/23 07:03:10;;;;;;;25.95;14.20;;;;;;;5.78;100.00;96929.81;5062936;28;20500;-60
2023/02/23 07:05:36;;;;;;;24.83;14.52;;;;;;;5.80;100.00;96949.19;5060550;28;20120;-60
2023/02/23 07:08:04;;;;;;;27.98;14.30;;;;;;;5.92;100.00;96951.88;5056283;28;20049;-60
2023/02/23 07:10:31;;;;;;;24.42;14.98;;;;;;;5.83;100.00;96949.53;5057858;28;20404;-60
2023/02/23 07:12:58;;;;;;;27.75;13.93;;;;;;;5.88;100.00;96958.75;5049160;28;20127;-60
2023/02/23 07:15:25;;;;;;;30.40;15.13;;;;;;;5.91;100.00;96956.44;5053702;28;20054;-61
2023/02/23 07:17:51;;;;;;;24.80;15.13;;;;;;;5.97;100.00;96962.78;5055767;28;20124;-61
2023/02/23 07:20:18;;;;;;;25.92;14.88;;;;;;;6.02;100.00;96964.75;5054476;28;20049;-61
2023/02/23 07:22:45;;;;;;;25.73;14.35;;;;;;;6.11;100.00;96966.06;5058920;28;20049;-61
2023/02/23 07:25:12;;;;;;;32.50;16.17;;;;;;;6.11;100.00;96971.44;5058145;28;20114;-62
2023/02/23 07:27:41;;;;;;;29.75;16.20;;;;;;;6.16;100.00;96971.53;5059254;28;20500;-61
2023/02/23 07:30:08;;;;;;;26.85;16.48;;;;;;;6.16;100.00;96960.00;5059967;28;20032;-61
2023/02/23 07:32:35;;;;;;;27.35;15.60;;;;;;;6.28;100.00;96973.44;5063507;28;20048;-61
2023/02/23 07:35:03;;;;;;;29.52;15.13;;;;;;;6.32;100.00;96974.59;5058823;28;20475;-61
2023/02/23 07:37:29;;;;;;;26.10;15.05;;;;;;;6.42;100.00;96969.47;5058613;28;20530;-60
2023/02/23 07:39:56;;;;;;;24.83;16.02;;;;;;;6.44;100.00;96969.22;5055462;28;20033;-60
2023/02/23 07:42:26;;;;;;;26.27;14.27;;;;;;;6.54;100.00;96966.75;5062920;28;20052;-61
2023/02/23 07:44:52;;;;;;;24.95;14.43;;;;;;;6.56;100.00;96963.84;5055500;28;20064;-61
2023/02/23 07:47:19;;;;;;;25.38;13.40;;;;;;;6.64;100.00;96964.28;5056353;28;20139;-60
2023/02/23 07:49:45;;;;;;;27.92;14.75;;;;;;;6.74;100.00;96962.84;5059512;28;20049;-60
2023/02/23 07:52:16;;;;;;;21.25;13.18;;;;;;;6.88;100.00;96964.22;5058244;28;20447;-60
2023/02/23 07:54:42;;;;;;;21.63;11.80;;;;;;;6.94;100.00;96964.34;5054874;28;20040;-60
2023/02/23 07:57:10;;;;;;;24.02;11.73;;;;;;;6.94;100.00;96962.47;5062461;28;20047;-61
2023/02/23 07:59:37;;;;;;;19.23;12.13;;;;;;;6.93;100.00;96960.00;5054932;28;20056;-61
2023/02/23 08:02:04;;;;;;;21.05;12.60;;;;;;;7.03;100.00;96954.81;5057662;28;20048;-61
2023/02/23 08:04:30;;;;;;;24.10;11.85;;;;;;;7.08;100.00;96959.50;5054494;28;20117;-61
2023/02/23 08:06:57;;;;;;;19.67;11.70;;;;;;;7.13;100.00;96957.72;5057336;28;22041;-61
2023/02/23 08:09:23;;;;;;;17.75;10.98;;;;;;;7.11;100.00;96957.13;5051854;28;20076;-51
2023/02/23 08:11:50;;;;;;;19.65;11.73;;;;;;;7.08;100.00;96971.06;5054205;28;20079;-58
2023/02/23 08:14:20;;;;;;;18.92;12.05;;;;;;;7.10;100.00;96960.06;5061680;28;20587;-51
2023/02/23 08:16:47;;;;;;;21.30;11.55;;;;;;;7.03;100.00;96963.72;5063590;28;20044;-50
2023/02/23 08:19:16;;;;;;;17.65;10.65;;;;;;;7.01;100.00;96962.34;5063323;28;20029;-57
2023/02/23 08:21:43;;;;;;;22.75;12.18;;;;;;;7.06;100.00;96966.97;5060354;28;20105;-55
2023/02/23 08:24:09;;;;;;;16.52;10.35;;;;;;;7.10;100.00;96966.28;5060568;28;20048;-57
2023/02/23 08:26:39;;;;;;;18.45;11.43;;;;;;;7.18;100.00;96966.97;5063882;28;20124;-56
2023/02/23 08:29:05;;;;;;;15.82;10.77;;;;;;;7.18;100.00;96959.69;5053329;28;20040;-53
2023/02/23 08:31:33;;;;;;;20.30;11.45;;;;;;;7.22;100.00;96965.44;5058600;28;20079;-56
2023/02/23 08:34:00;;;;;;;19.77;11.35;;;;;;;7.27;100.00;96965.50;5059696;28;20684;-58
2023/02/23 08:36:27;;;;;;;20.42;11.55;;;;;;;7.30;100.00;96970.44;5045553;28;20461;-56
2023/02/23 08:38:53;;;;;;;15.82;11.55;;;;;;;7.37;100.00;96959.50;5062260;28;20036;-59
2023/02/23 08:41:20;;;;;;;23.40;10.52;;;;;;;7.46;100.00;96966.13;5060471;28;20044;-53
2023/02/23 08:43:47;;;;;;;18.08;10.88;;;;;;;7.57;100.00;96961.75;5058707;28;20552;-60
2023/02/23 08:46:15;;;;;;;17.90;10.43;;;;;;;7.64;100.00;96965.09;5064126;28;20477;-58
2023/02/23 08:48:42;;;;;;;15.60;10.02;;;;;;;7.74;100.00;96967.13;5056931;28;20044;-57
2023/02/23 08:51:08;;;;;;;13.80;9.02;;;;;;;7.80;100.00;96970.75;5056030;28;20048;-59
2023/02/23 08:53:35;;;;;;;13.85;8.55;;;;;;;7.96;100.00;96965.63;5065561;28;20052;-60
2023/02/23 08:56:04;;;;;;;12.30;7.72;;;;;;;8.09;100.00;96967.97;5060609;28;20586;-59
2023/02/23 08:58:32;;;;;;;12.40;7.13;;;;;;;8.14;100.00;96965.34;5057461;28;20534;-59
2023/02/23 09:00:59;;;;;;;14.02;7.65;;;;;;;8.14;100.00;96962.66;5059696;28;20448;-59
2023/02/23 09:03:28;;;;;;;13.45;7.60;;;;;;;8.24;100.00;96964.69;5060349;28;20140;-60
2023/02/23 09:05:58;;;;;;;14.60;7.15;;;;;;;8.38;100.00;96965.19;5052477;28;20044;-60
2023/02/23 09:08:24;;;;;;;15.07;7.13;;;;;;;8.54;100.00;96963.53;5062002;28;20084;-60
2023/02/23 09:10:50;;;;;;;12.95;6.95;;;;;;;8.57;100.00;96968.44;5060662;28;20090;-60
2023/02/23 09:13:17;;;;;;;10.13;6.28;;;;;;;8.66;100.00;96959.91;5065879;28;20048;-59
2023/02/23 09:15:44;;;;;;;10.98;5.93;;;;;;;8.75;100.00;96965.69;5038787;28;20098;-60
2023/02/23 09:18:13;;;;;;;10.57;5.65;;;;;;;8.76;100.00;96967.31;5057247;28;20047;-60
2023/02/23 09:20:41;;;;;;;9.77;5.70;;;;;;;8.69;100.00;96965.63;5054542;28;20562;-60
2023/02/23 09:23:08;;;;;;;9.65;5.78;;;;;;;8.81;100.00;96967.41;5037252;28;20861;-59
2023/02/23 09:25:42;;;;;;;12.20;5.72;;;;;;;8.89;100.00;96969.66;5059580;28;20072;-60
2023/02/23 09:28:11;;;;;;;10.93;5.05;;;;;;;8.95;100.00;96965.94;5056286;28;20068;-60
2023/02/23 09:30:40;;;;;;;8.90;4.47;;;;;;;9.03;100.00;96966.59;5054142;28;20036;-60
2023/02/23 09:33:08;;;;;;;9.13;5.43;;;;;;;9.05;100.00;96967.97;5028042;28;20555;-61
2023/02/23 09:35:35;;;;;;;7.28;4.15;;;;;;;9.13;100.00;96961.28;5057335;28;20138;-60
2023/02/23 09:38:03;;;;;;;10.30;4.95;;;;;;;9.23;100.00;96956.00;5059763;28;20072;-61
2023/02/23 09:40:41;;;;;;;13.05;5.13;;;;;;;9.23;100.00;96963.28;5054084;28;20068;-61
2023/02/23 09:43:26;;;;;;;8.35;4.53;;;;;;;9.23;100.00;96958.72;5050536;28;20431;-63
2023/02/23 09:46:12;;;;;;;8.77;4.35;;;;;;;9.31;100.00;96959.31;5050722;28;20060;-61
2023/02/23 09:48:39;;;;;;;9.35;3.88;;;;;;;9.42;100.00;96960.25;5056517;28;20700;-60
2023/02/23 09:51:11;;;;;;;7.97;4.72;;;;;;;9.44;100.00;96956.19;5055689;28;20052;-60
2023/02/23 09:54:00;;;;;;;7.38;4.47;;;;;;;9.54;100.00;96962.81;5053692;28;20041;-60
2023/02/23 09:56:38;;;;;;;7.93;4.00;;;;;;;9.70;100.00;96961.84;5059607;28;20052;-61
2023/02/23 09:59:10;;;;;;;9.50;3.95;;;;;;;9.79;100.00;96962.22;5051997;28;20036;-61
2023/02/23 10:01:46;;;;;;;7.35;4.63;;;;;;;9.90;100.00;96968.53;5056888;28;20094;-59
2023/02/23 10:04:21;;;;;;;12.18;3.88;;;;;;;10.03;100.00;96970.00;5057790;28;20040;-61
2023/02/23 10:06:56;;;;;;;10.38;3.97;;;;;;;10.09;100.00;96950.00;5057719;28;20047;-61
2023/02/23 10:09:44;;;;;;;10.55;3.80;;;;;;;10.26;100.00;96959.88;5059676;28;20056;-60
2023/02/23 10:12:20;;;;;;;7.10;3.30;;;;;;;10.28;100.00;96963.13;5032692;28;20045;-60
2023/02/23 10:14:55;;;;;;;7.40;2.97;;;;;;;10.41;100.00;96964.56;5055067;28;20082;-61
2023/02/23 10:17:39;;;;;;;5.17;2.57;;;;;;;10.59;98.32;96962.53;5057361;28;21304;-61
2023/02/23 10:20:26;;;;;;;4.95;2.47;;;;;;;10.65;96.41;96958.81;5051154;28;20182;-61
2023/02/23 10:22:57;;;;;;;7.80;3.00;;;;;;;10.78;95.32;96966.44;5053443;28;20044;-60
2023/02/23 10:25:27;;;;;;;6.05;2.97;;;;;;;10.88;94.21;96964.84;5056409;28;20052;-61
2023/02/23 10:27:55;;;;;;;6.80;2.35;;;;;;;10.95;88.64;96962.72;5060878;28;20117;-61
2023/02/23 10:30:28;;;;;;;5.10;2.40;;;;;;;11.10;88.24;96963.88;5052276;28;20120;-61
2023/02/23 10:33:04;;;;;;;7.68;2.75;;;;;;;10.92;91.78;96968.69;5054217;28;20050;-61
2023/02/23 10:35:32;;;;;;;8.88;3.05;;;;;;;10.97;87.46;96965.97;5050316;28;20129;-60
2023/02/23 10:38:00;;;;;;;4.60;1.85;;;;;;;11.00;86.73;96965.47;5051178;28;20045;-60
2023/02/23 10:40:31;;;;;;;5.43;1.80;;;;;;;10.86;82.21;96969.72;5054462;28;20120;-62
2023/02/23 10:43:02;;;;;;;6.05;1.77;;;;;;;11.21;79.61;96965.53;5052222;28;20747;-61
2023/02/23 10:45:33;;;;;;;4.35;1.77;;;;;;;11.19;82.40;96973.94;5053043;28;20044;-61
2023/02/23 10:48:15;;;;;;;6.65;1.83;;;;;;;11.18;81.05;96969.56;5054322;28;20052;-61
2023/02/23 10:50:42;;;;;;;;;;;;;;;11.00;82.05;96964.63;5054967;28;20045;-60
2023/02/23 10:53:15;;;;;;;9.48;2.42;;;;;;;10.96;82.72;96969.78;5060204;28;20433;-60
2023/02/23 10:55:46;;;;;;;5.95;1.80;;;;;;;10.98;84.64;96972.22;5062622;28;20066;-62
2023/02/23 10:58:18;;;;;;;4.53;1.92;;;;;;;10.97;80.34;96970.56;5059420;28;20044;-61
2023/02/23 11:00:57;;;;;;;7.85;1.80;;;;;;;11.13;83.20;96974.97;5059384;28;20101;-60
2023/02/23 11:03:36;;;;;;;6.72;2.50;;;;;;;11.10;83.46;96974.69;5058371;28;20522;-59
2023/02/23 11:06:03;;;;;;;4.40;1.98;;;;;;;11.13;81.08;96966.06;5056983;28;20052;-60
2023/02/23 11:08:35;;;;;;;8.77;2.63;;;;;;;10.97;82.91;96965.97;5061048;28;20044;-60
2023/02/23 11:11:07;;;;;;;7.65;2.33;;;;;;;10.98;83.39;96967.59;5058392;28;20045;-61
2023/02/23 11:13:35;;;;;;;;;;;;;;;11.04;82.08;96965.72;5059865;28;20045;-59
2023/02/23 11:16:06;;;;;;;4.68;2.38;;;;;;;11.15;83.00;96969.28;5040498;28;20017;-60
2023/02/23 11:18:33;;;;;;;4.88;2.40;;;;;;;11.30;84.26;96957.69;5057589;28;20119;-60
2023/02/23 11:20:59;;;;;;;9.20;2.22;;;;;;;11.35;83.93;96957.69;5060012;28;20066;-60
2023/02/23 11:23:30;;;;;;;11.00;3.25;;;;;;;11.50;82.04;96956.91;5058071;28;20040;-61
2023/02/23 11:26:02;;;;;;;7.68;2.33;;;;;;;11.47;80.96;96952.06;5055088;28;20047;-59
2023/02/23 11:28:32;;;;;;;5.95;2.15;;;;;;;11.60;82.00;96949.91;5057165;28;20211;-60
2023/02/23 11:31:14;;;;;;;7.38;2.65;;;;;;;11.47;82.68;96948.50;5055626;28;20109;-60
2023/02/23 11:33:42;;;;;;;7.07;2.83;;;;;;;11.58;82.78;96944.75;5060335;28;20068;-60
2023/02/23 11:36:24;;;;;;;6.88;2.78;;;;;;;11.65;82.35;96947.19;5057107;28;20114;-60
2023/02/23 11:39:23;;;;;;;6.47;2.78;;;;;;;11.57;81.47;96940.38;5058687;28;20538;-60
2023/02/23 11:42:08;;;;;;;6.55;2.83;;;;;;;11.37;84.35;96943.88;5052387;28;20741;-59
2023/02/23 11:44:34;;;;;;;5.60;2.78;;;;;;;11.43;86.13;96940.91;5056857;28;20083;-59
2023/02/23 11:47:02;;;;;;;8.85;3.38;;;;;;;11.55;86.38;96937.97;5061016;28;20120;-61
2023/02/23 11:49:34;;;;;;;6.72;2.75;;;;;;;11.60;84.12;96934.44;5060150;28;20083;-61
2023/02/23 11:52:02;;;;;;;7.22;3.17;;;;;;;11.36;84.06;96939.56;5057812;28;20071;-61
2023/02/23 11:54:32;;;;;;;8.27;2.67;;;;;;;11.22;86.35;96939.22;5057429;28;20048;-62
2023/02/23 11:57:01;;;;;;;7.43;3.65;;;;;;;11.25;87.06;96933.28;5062925;28;20036;-61
2023/02/23 11:59:39;;;;;;;8.85;4.40;;;;;;;11.24;88.09;96934.38;5053397;28;20072;-61
2023/02/23 12:02:22;;;;;;;5.68;3.35;;;;;;;11.19;87.77;96935.16;5058268;28;20041;-61
2023/02/23 12:04:52;;;;;;;6.80;3.33;;;;;;;11.15;89.21;96928.66;5058011;28;20044;-60
2023/02/23 12:07:54;;;;;;;9.93;4.38;;;;;;;11.14;88.50;96930.56;5063175;28;20487;-60
2023/02/23 12:10:30;;;;;;;7.60;4.68;;;;;;;11.14;88.93;96933.28;5047540;28;20411;-62
2023/02/23 12:13:09;;;;;;;8.05;4.20;;;;;;;11.02;90.30;96928.06;5049511;28;20052;-62
2023/02/23 12:15:38;;;;;;;8.90;3.78;;;;;;;11.05;88.64;96921.28;5056789;28;20059;-60
2023/02/23 12:18:17;;;;;;;8.43;4.28;;;;;;;11.08;90.35;96928.06;5053876;28;20041;-60
2023/02/23 12:20:49;;;;;;;10.57;4.70;;;;;;;11.01;92.15;96929.16;5052246;28;20032;-61
2023/02/23 12:23:21;;;;;;;7.85;3.80;;;;;;;11.02;90.88;96930.78;5055303;28;20044;-60
2023/02/23 12:25:55;;;;;;;7.05;3.97;;;;;;;10.97;89.44;96919.09;5059290;28;20102;-61
2023/02/23 12:28:57;;;;;;;7.60;4.97;;;;;;;11.05;88.67;96924.00;5053941;28;20139;-61
2023/02/23 12:31:39;;;;;;;6.82;4.20;;;;;;;11.03;88.19;96920.75;5052774;28;20056;-60
2023/02/23 12:34:21;;;;;;;7.90;3.53;;;;;;;11.01;88.93;96921.03;5052370;28;20068;-61
2023/02/23 12:36:59;;;;;;;9.38;3.40;;;;;;;11.09;87.85;96922.41;5057802;28;20443;-62
2023/02/23 12:39:40;;;;;;;6.03;2.75;;;;;;;11.12;87.11;96912.91;5054485;28;20103;-62
2023/02/23 12:42:16;;;;;;;7.27;2.73;;;;;;;11.29;84.69;96915.41;5054182;28;21553;-62
2023/02/23 12:44:52;;;;;;;8.45;3.85;;;;;;;11.41;84.70;96912.44;5057364;28;20360;-60
2023/02/23 12:47:30;;;;;;;8.60;3.13;;;;;;;11.26;85.98;96911.34;5060128;28;20040;-61
2023/02/23 12:50:06;;;;;;;10.23;3.60;;;;;;;11.19;86.70;96910.78;5061827;28;20085;-61
2023/02/23 12:52:49;;;;;;;7.13;3.10;;;;;;;11.26;86.96;96910.53;5053968;28;20052;-61
2023/02/23 12:55:27;;;;;;;8.90;3.17;;;;;;;11.34;85.44;96909.16;5056297;28;20045;-61
2023/02/23 12:58:04;;;;;;;9.38;3.13;;;;;;;11.43;84.73;96908.38;5051722;28;20135;-61
2023/02/23 13:00:41;;;;;;;7.18;2.97;;;;;;;11.37;86.05;96904.03;5058559;28;20036;-60